Saturday, August 18, 2018, 2:50 AM GMT
Back to Local

CYRJ, Roberval, Que.

Location: , , Canada Lat: 48.517
Local Time: 2:50 AM GMT ( 2:50 GMT) Lon: -72.267
Time Zone: GMT Elev: 587 ft

Show me the last for .
Show Decoded

2018-08-18 02:00 METAR CYRJ 180200Z 24003KT 25SM BKN150 14/12 A2995 RMK AC5 SLP144 DENSITY ALT
                 600FT =
2018-08-18 01:00 METAR CYRJ 180100Z 21004KT 25SM BKN160 15/13 A2995 RMK AC7 SLP144 DENSITY ALT
                 700FT =
2018-08-18 00:29 METAR CYRJ 180029Z 00000KT 20SM SCT100 OVC170 15/13 A2995 RMK AC4AC4 SLP145
                 DENSITY ALT 700FT =
2018-08-18 00:00 METAR CYRJ 180000Z 21005KT 12SM -RA OVC100 16/14 A2993 RMK AC8 SLP140 DENSITY
                 ALT 900FT =
2018-08-17 23:00 METAR CYRJ 172300Z 24006KT 12SM -RA OVC110 17/15 A2994 RMK AC8 SLP143 DENSITY
                 ALT 900FT =
2018-08-17 22:00 METAR CYRJ 172200Z 25003KT 12SM -RA OVC094 17/16 A2994 RMK AC8 SLP142 DENSITY
                 ALT 1000FT =
2018-08-17 21:00 METAR CYRJ 172100Z 25003KT 40SM -RA OVC078 19/15 A2995 RMK AC8 SLP146 DENSITY
                 ALT 1200FT =
2018-08-17 20:00 METAR CYRJ 172000Z 22004KT 40SM FEW030 OVC150 20/15 A2996 RMK SC1AC8 SC TR
                 SLP148 DENSITY ALT 1300FT =
2018-08-17 19:00 METAR CYRJ 171900Z VRB02KT 40SM FEW035 OVC170 20/14 A2996 RMK SC1AC8 SC TR
                 SLP150 DENSITY ALT 1400FT =
2018-08-17 18:00 METAR CYRJ 171800Z 00000KT 40SM FEW040 BKN170 20/15 A2997 RMK CU1AS7 CU TR
                 SLP153 DENSITY ALT 1300FT =
2018-08-17 17:00 METAR CYRJ 171700Z 23005KT 40SM FEW040 BKN230 RMK CU1CS7 CU TR WIND ESTD WND
                 ESTD DENSITY ALT MISG =
2018-08-17 16:00 METAR CYRJ 171600Z 25004KT 200V270 40SM FEW040 BKN220 22/12 A2999 RMK CU1CS7 CU
                 TR SLP159 DENSITY ALT 1500FT =
2018-08-17 15:00 METAR CYRJ 171500Z 21008KT 160V240 40SM FEW030 FEW200 BKN220 21/12 A3001 RMK
                 CU1CC1CI6 CU TR SLP165 DENSITY ALT 1400FT =
2018-08-17 14:00 METAR CYRJ 171400Z 23006KT 190V260 40SM SCT200 BKN220 21/13 A3001 RMK CC3CI4
                 SLP168 DENSITY ALT 1400FT =
2018-08-17 13:00 METAR CYRJ 171300Z 21009KT 40SM BKN220 19/12 A3002 RMK CI6 SLP171 DENSITY ALT
                 1100FT =
2018-08-17 12:00 METAR CYRJ 171200Z 23009KT 40SM BKN220 16/11 A3004 RMK CI6 SLP177 DENSITY ALT
                 700FT =
2018-08-17 11:00 METAR CYRJ 171100Z 23009G15KT 40SM FEW040 BKN220 14/10 A3004 RMK SC1CI7 SC TR
                 SLP176 =
2018-08-17 10:00 METAR CYRJ 171000Z 23011KT 25SM SCT230 14/10 A3004 RMK CI3 SLP175 =
2018-08-17 09:00 METAR CYRJ 170900Z 23011KT 25SM FEW230 13/10 A3002 RMK CI1 CI TR SLP171 =
2018-08-17 08:00 METAR CYRJ 170800Z 23012G17KT 25SM FEW230 14/10 A3003 RMK CI1 CI TR SLP174 =
2018-08-17 07:00 METAR CYRJ 170700Z 22013G18KT 25SM SKC 14/10 A3004 RMK SLP175 =
2018-08-17 06:00 METAR CYRJ 170600Z 22012KT 25SM FEW230 14/10 A3004 RMK CI1 CI TR SLP176 =
2018-08-17 05:00 METAR CYRJ 170500Z 22011KT 25SM FEW230 14/10 A3005 RMK CI1 SLP179 =
2018-08-17 04:00 METAR CYRJ 170400Z 22010G17KT 25SM SCT230 15/10 A3005 RMK CI3 SLP179 DENSITY ALT
                 600FT =
2018-08-17 03:00 METAR CYRJ 170300Z 00000KT 25SM FEW230 11/10 A3005 RMK CI2 SLP180 =

Support USWX by starting your Amazon purchase here.